sensor_id;sensor_type;location;lat;lon;timestamp;P1;durP1;ratioP1;P2;durP2;ratioP2
67997;SDS011;54773;53.388;-1.504;2023-01-15T00:01:02;4.05;;;1.02;;
67997;SDS011;54773;53.388;-1.504;2023-01-15T00:03:29;6.30;;;1.38;;
67997;SDS011;54773;53.388;-1.504;2023-01-15T00:05:55;5.47;;;1.02;;
67997;SDS011;54773;53.388;-1.504;2023-01-15T00:08:20;4.95;;;1.30;;
67997;SDS011;54773;53.388;-1.504;2023-01-15T00:10:46;7.38;;;1.40;;
67997;SDS011;54773;53.388;-1.504;2023-01-15T00:13:11;5.65;;;1.33;;
67997;SDS011;54773;53.388;-1.504;2023-01-15T00:15:37;4.70;;;1.05;;
67997;SDS011;54773;53.388;-1.504;2023-01-15T00:18:03;6.38;;;1.33;;
67997;SDS011;54773;53.388;-1.504;2023-01-15T00:20:29;7.07;;;1.35;;
67997;SDS011;54773;53.388;-1.504;2023-01-15T00:22:56;6.00;;;1.30;;
67997;SDS011;54773;53.388;-1.504;2023-01-15T00:25:23;4.35;;;1.10;;
67997;SDS011;54773;53.388;-1.504;2023-01-15T00:28:07;8.48;;;1.35;;
67997;SDS011;54773;53.388;-1.504;2023-01-15T00:30:33;6.20;;;1.30;;
67997;SDS011;54773;53.388;-1.504;2023-01-15T00:32:58;4.45;;;1.20;;
67997;SDS011;54773;53.388;-1.504;2023-01-15T00:35:24;5.60;;;1.25;;
67997;SDS011;54773;53.388;-1.504;2023-01-15T00:37:50;6.32;;;1.17;;
67997;SDS011;54773;53.388;-1.504;2023-01-15T00:40:16;5.82;;;1.23;;
67997;SDS011;54773;53.388;-1.504;2023-01-15T00:42:43;4.65;;;1.23;;
67997;SDS011;54773;53.388;-1.504;2023-01-15T00:45:09;4.22;;;1.20;;
67997;SDS011;54773;53.388;-1.504;2023-01-15T00:47:40;7.38;;;1.40;;
67997;SDS011;54773;53.388;-1.504;2023-01-15T00:50:08;4.72;;;1.00;;
67997;SDS011;54773;53.388;-1.504;2023-01-15T00:52:37;5.20;;;1.05;;
67997;SDS011;54773;53.388;-1.504;2023-01-15T00:55:03;4.07;;;1.02;;
67997;SDS011;54773;53.388;-1.504;2023-01-15T00:57:29;7.53;;;1.85;;
67997;SDS011;54773;53.388;-1.504;2023-01-15T00:59:55;5.50;;;1.05;;
67997;SDS011;54773;53.388;-1.504;2023-01-15T01:02:20;6.60;;;1.10;;
67997;SDS011;54773;53.388;-1.504;2023-01-15T01:04:46;4.32;;;1.02;;
67997;SDS011;54773;53.388;-1.504;2023-01-15T01:07:13;8.48;;;1.10;;
67997;SDS011;54773;53.388;-1.504;2023-01-15T01:09:39;5.72;;;1.10;;
67997;SDS011;54773;53.388;-1.504;2023-01-15T01:12:04;6.63;;;1.60;;
67997;SDS011;54773;53.388;-1.504;2023-01-15T01:14:30;6.85;;;1.20;;
67997;SDS011;54773;53.388;-1.504;2023-01-15T01:16:56;6.78;;;1.42;;
67997;SDS011;54773;53.388;-1.504;2023-01-15T01:19:22;4.53;;;1.10;;
67997;SDS011;54773;53.388;-1.504;2023-01-15T01:21:49;5.25;;;0.93;;
67997;SDS011;54773;53.388;-1.504;2023-01-15T01:24:16;4.72;;;0.90;;
67997;SDS011;54773;53.388;-1.504;2023-01-15T01:26:45;5.00;;;1.00;;
67997;SDS011;54773;53.388;-1.504;2023-01-15T01:29:16;7.07;;;1.10;;
67997;SDS011;54773;53.388;-1.504;2023-01-15T01:31:43;7.03;;;1.00;;
67997;SDS011;54773;53.388;-1.504;2023-01-15T01:34:10;4.10;;;0.90;;
67997;SDS011;54773;53.388;-1.504;2023-01-15T01:36:36;5.07;;;0.85;;
67997;SDS011;54773;53.388;-1.504;2023-01-15T01:39:03;6.20;;;1.30;;
67997;SDS011;54773;53.388;-1.504;2023-01-15T01:41:30;2.85;;;0.95;;
67997;SDS011;54773;53.388;-1.504;2023-01-15T01:44:00;7.32;;;1.17;;
67997;SDS011;54773;53.388;-1.504;2023-01-15T01:46:52;4.60;;;0.90;;
67997;SDS011;54773;53.388;-1.504;2023-01-15T01:49:18;4.40;;;1.00;;
67997;SDS011;54773;53.388;-1.504;2023-01-15T01:51:46;5.43;;;1.35;;
67997;SDS011;54773;53.388;-1.504;2023-01-15T01:54:24;4.90;;;1.02;;
67997;SDS011;54773;53.388;-1.504;2023-01-15T01:56:51;4.88;;;1.00;;
67997;SDS011;54773;53.388;-1.504;2023-01-15T01:59:17;4.55;;;1.00;;
67997;SDS011;54773;53.388;-1.504;2023-01-15T02:01:44;4.75;;;1.08;;
67997;SDS011;54773;53.388;-1.504;2023-01-15T02:04:21;10.00;;;0.95;;
67997;SDS011;54773;53.388;-1.504;2023-01-15T02:06:47;3.65;;;0.93;;
67997;SDS011;54773;53.388;-1.504;2023-01-15T02:09:12;4.80;;;0.98;;
67997;SDS011;54773;53.388;-1.504;2023-01-15T02:11:38;5.43;;;0.98;;
67997;SDS011;54773;53.388;-1.504;2023-01-15T02:17:09;5.20;;;1.08;;
67997;SDS011;54773;53.388;-1.504;2023-01-15T02:22:35;6.10;;;1.00;;
67997;SDS011;54773;53.388;-1.504;2023-01-15T02:25:18;4.25;;;0.85;;
67997;SDS011;54773;53.388;-1.504;2023-01-15T02:27:47;5.22;;;0.93;;
67997;SDS011;54773;53.388;-1.504;2023-01-15T02:30:18;6.90;;;1.50;;
67997;SDS011;54773;53.388;-1.504;2023-01-15T02:32:52;5.53;;;1.02;;
67997;SDS011;54773;53.388;-1.504;2023-01-15T02:35:21;4.15;;;1.17;;
67997;SDS011;54773;53.388;-1.504;2023-01-15T02:37:49;4.22;;;1.00;;
67997;SDS011;54773;53.388;-1.504;2023-01-15T02:40:18;6.55;;;1.00;;
67997;SDS011;54773;53.388;-1.504;2023-01-15T02:42:45;7.70;;;1.38;;
67997;SDS011;54773;53.388;-1.504;2023-01-15T02:45:12;3.65;;;0.95;;
67997;SDS011;54773;53.388;-1.504;2023-01-15T02:47:40;6.32;;;1.15;;
67997;SDS011;54773;53.388;-1.504;2023-01-15T02:50:09;3.92;;;1.05;;
67997;SDS011;54773;53.388;-1.504;2023-01-15T02:52:38;5.38;;;1.15;;
67997;SDS011;54773;53.388;-1.504;2023-01-15T02:55:08;8.82;;;1.10;;
67997;SDS011;54773;53.388;-1.504;2023-01-15T02:57:40;4.40;;;1.00;;
67997;SDS011;54773;53.388;-1.504;2023-01-15T03:00:08;4.22;;;1.23;;
67997;SDS011;54773;53.388;-1.504;2023-01-15T03:02:37;6.35;;;1.17;;
67997;SDS011;54773;53.388;-1.504;2023-01-15T03:05:07;7.05;;;0.98;;
67997;SDS011;54773;53.388;-1.504;2023-01-15T03:07:36;11.25;;;1.10;;
67997;SDS011;54773;53.388;-1.504;2023-01-15T03:10:07;5.47;;;1.05;;
67997;SDS011;54773;53.388;-1.504;2023-01-15T03:12:36;4.15;;;1.35;;
67997;SDS011;54773;53.388;-1.504;2023-01-15T03:15:38;2.72;;;1.05;;
67997;SDS011;54773;53.388;-1.504;2023-01-15T03:18:23;4.57;;;0.93;;
67997;SDS011;54773;53.388;-1.504;2023-01-15T03:20:53;6.55;;;1.15;;
67997;SDS011;54773;53.388;-1.504;2023-01-15T03:23:22;6.13;;;1.58;;
67997;SDS011;54773;53.388;-1.504;2023-01-15T03:25:48;8.00;;;1.40;;
67997;SDS011;54773;53.388;-1.504;2023-01-15T03:28:14;3.63;;;0.98;;
67997;SDS011;54773;53.388;-1.504;2023-01-15T03:30:44;6.22;;;1.27;;
67997;SDS011;54773;53.388;-1.504;2023-01-15T03:33:09;4.65;;;1.00;;
67997;SDS011;54773;53.388;-1.504;2023-01-15T03:35:44;6.55;;;1.40;;
67997;SDS011;54773;53.388;-1.504;2023-01-15T03:38:11;5.70;;;1.10;;
67997;SDS011;54773;53.388;-1.504;2023-01-15T03:40:37;3.67;;;1.10;;
67997;SDS011;54773;53.388;-1.504;2023-01-15T03:43:05;7.18;;;1.10;;
67997;SDS011;54773;53.388;-1.504;2023-01-15T03:45:53;7.28;;;1.45;;
67997;SDS011;54773;53.388;-1.504;2023-01-15T03:48:20;6.72;;;1.30;;
67997;SDS011;54773;53.388;-1.504;2023-01-15T03:53:26;4.38;;;0.90;;
67997;SDS011;54773;53.388;-1.504;2023-01-15T03:56:41;4.68;;;0.90;;
67997;SDS011;54773;53.388;-1.504;2023-01-15T03:59:15;4.72;;;0.98;;
67997;SDS011;54773;53.388;-1.504;2023-01-15T04:01:43;5.70;;;1.35;;
67997;SDS011;54773;53.388;-1.504;2023-01-15T04:04:09;5.15;;;1.00;;
67997;SDS011;54773;53.388;-1.504;2023-01-15T04:06:36;3.42;;;1.38;;
67997;SDS011;54773;53.388;-1.504;2023-01-15T04:09:03;6.22;;;1.20;;
67997;SDS011;54773;53.388;-1.504;2023-01-15T04:11:31;5.00;;;1.02;;
67997;SDS011;54773;53.388;-1.504;2023-01-15T04:13:56;6.18;;;1.52;;
67997;SDS011;54773;53.388;-1.504;2023-01-15T04:16:26;3.70;;;0.98;;
67997;SDS011;54773;53.388;-1.504;2023-01-15T04:18:57;4.47;;;1.00;;
67997;SDS011;54773;53.388;-1.504;2023-01-15T04:21:23;5.38;;;1.00;;
67997;SDS011;54773;53.388;-1.504;2023-01-15T04:23:49;4.85;;;1.30;;
67997;SDS011;54773;53.388;-1.504;2023-01-15T04:26:15;5.05;;;1.15;;
67997;SDS011;54773;53.388;-1.504;2023-01-15T04:28:41;4.22;;;1.17;;
67997;SDS011;54773;53.388;-1.504;2023-01-15T04:31:07;5.72;;;1.05;;
67997;SDS011;54773;53.388;-1.504;2023-01-15T04:33:32;4.38;;;1.02;;
67997;SDS011;54773;53.388;-1.504;2023-01-15T04:36:02;2.53;;;0.80;;
67997;SDS011;54773;53.388;-1.504;2023-01-15T04:38:27;3.97;;;0.82;;
67997;SDS011;54773;53.388;-1.504;2023-01-15T04:40:53;5.07;;;1.13;;
67997;SDS011;54773;53.388;-1.504;2023-01-15T04:43:38;4.57;;;0.73;;
67997;SDS011;54773;53.388;-1.504;2023-01-15T04:46:22;5.40;;;1.15;;
67997;SDS011;54773;53.388;-1.504;2023-01-15T04:48:49;4.20;;;1.10;;
67997;SDS011;54773;53.388;-1.504;2023-01-15T04:51:15;5.07;;;0.82;;
67997;SDS011;54773;53.388;-1.504;2023-01-15T04:53:40;4.47;;;1.20;;
67997;SDS011;54773;53.388;-1.504;2023-01-15T04:56:06;5.93;;;1.23;;
67997;SDS011;54773;53.388;-1.504;2023-01-15T04:58:32;4.43;;;1.10;;
67997;SDS011;54773;53.388;-1.504;2023-01-15T05:00:58;3.00;;;0.77;;
67997;SDS011;54773;53.388;-1.504;2023-01-15T05:03:29;2.75;;;0.95;;
67997;SDS011;54773;53.388;-1.504;2023-01-15T05:05:59;2.70;;;0.75;;
67997;SDS011;54773;53.388;-1.504;2023-01-15T05:08:26;2.35;;;0.75;;
67997;SDS011;54773;53.388;-1.504;2023-01-15T05:11:01;3.08;;;0.82;;
67997;SDS011;54773;53.388;-1.504;2023-01-15T05:13:35;2.92;;;0.95;;
67997;SDS011;54773;53.388;-1.504;2023-01-15T05:16:12;3.95;;;1.10;;
67997;SDS011;54773;53.388;-1.504;2023-01-15T05:18:39;6.82;;;1.25;;
67997;SDS011;54773;53.388;-1.504;2023-01-15T05:21:11;3.55;;;0.73;;
67997;SDS011;54773;53.388;-1.504;2023-01-15T05:23:41;4.70;;;0.90;;
67997;SDS011;54773;53.388;-1.504;2023-01-15T05:26:06;5.18;;;0.70;;
67997;SDS011;54773;53.388;-1.504;2023-01-15T05:28:33;4.22;;;0.95;;
67997;SDS011;54773;53.388;-1.504;2023-01-15T05:31:02;1.40;;;0.55;;
67997;SDS011;54773;53.388;-1.504;2023-01-15T05:33:31;3.55;;;0.98;;
67997;SDS011;54773;53.388;-1.504;2023-01-15T05:38:41;4.45;;;1.15;;
67997;SDS011;54773;53.388;-1.504;2023-01-15T05:46:44;3.70;;;1.00;;
67997;SDS011;54773;53.388;-1.504;2023-01-15T05:49:12;2.60;;;0.88;;
67997;SDS011;54773;53.388;-1.504;2023-01-15T05:51:39;4.65;;;1.02;;
67997;SDS011;54773;53.388;-1.504;2023-01-15T05:54:06;1.92;;;0.60;;
67997;SDS011;54773;53.388;-1.504;2023-01-15T05:56:34;2.38;;;0.77;;
67997;SDS011;54773;53.388;-1.504;2023-01-15T05:59:00;4.32;;;1.20;;
67997;SDS011;54773;53.388;-1.504;2023-01-15T06:01:26;4.82;;;0.65;;
67997;SDS011;54773;53.388;-1.504;2023-01-15T06:03:51;5.22;;;0.75;;
67997;SDS011;54773;53.388;-1.504;2023-01-15T06:06:19;3.20;;;0.68;;
67997;SDS011;54773;53.388;-1.504;2023-01-15T06:08:45;5.45;;;1.00;;
67997;SDS011;54773;53.388;-1.504;2023-01-15T06:11:10;2.30;;;0.93;;
67997;SDS011;54773;53.388;-1.504;2023-01-15T06:13:38;3.50;;;0.90;;
67997;SDS011;54773;53.388;-1.504;2023-01-15T06:16:04;4.03;;;1.25;;
67997;SDS011;54773;53.388;-1.504;2023-01-15T06:18:30;6.30;;;0.80;;
67997;SDS011;54773;53.388;-1.504;2023-01-15T06:21:01;5.28;;;0.93;;
67997;SDS011;54773;53.388;-1.504;2023-01-15T06:23:27;4.65;;;1.10;;
67997;SDS011;54773;53.388;-1.504;2023-01-15T06:25:58;4.40;;;1.00;;
67997;SDS011;54773;53.388;-1.504;2023-01-15T06:28:24;3.15;;;0.98;;
67997;SDS011;54773;53.388;-1.504;2023-01-15T06:30:50;5.38;;;1.40;;
67997;SDS011;54773;53.388;-1.504;2023-01-15T06:33:15;2.70;;;0.80;;
67997;SDS011;54773;53.388;-1.504;2023-01-15T06:35:41;5.95;;;0.93;;
67997;SDS011;54773;53.388;-1.504;2023-01-15T06:38:06;6.60;;;1.77;;
67997;SDS011;54773;53.388;-1.504;2023-01-15T06:40:32;4.28;;;1.45;;
67997;SDS011;54773;53.388;-1.504;2023-01-15T06:42:57;4.40;;;1.38;;
67997;SDS011;54773;53.388;-1.504;2023-01-15T06:45:42;3.95;;;1.65;;
67997;SDS011;54773;53.388;-1.504;2023-01-15T06:50:52;7.47;;;1.50;;
67997;SDS011;54773;53.388;-1.504;2023-01-15T06:53:19;4.72;;;1.63;;
67997;SDS011;54773;53.388;-1.504;2023-01-15T06:55:45;4.68;;;1.40;;
67997;SDS011;54773;53.388;-1.504;2023-01-15T06:58:11;6.82;;;1.50;;
67997;SDS011;54773;53.388;-1.504;2023-01-15T07:00:37;6.50;;;1.92;;
67997;SDS011;54773;53.388;-1.504;2023-01-15T07:03:03;8.98;;;1.92;;
67997;SDS011;54773;53.388;-1.504;2023-01-15T07:05:29;5.30;;;1.88;;
67997;SDS011;54773;53.388;-1.504;2023-01-15T07:07:56;4.35;;;1.38;;
67997;SDS011;54773;53.388;-1.504;2023-01-15T07:10:22;5.45;;;1.65;;
67997;SDS011;54773;53.388;-1.504;2023-01-15T07:12:48;8.63;;;1.98;;
67997;SDS011;54773;53.388;-1.504;2023-01-15T07:15:13;6.25;;;1.45;;
67997;SDS011;54773;53.388;-1.504;2023-01-15T07:17:39;4.65;;;1.63;;
67997;SDS011;54773;53.388;-1.504;2023-01-15T07:20:05;4.03;;;1.58;;
67997;SDS011;54773;53.388;-1.504;2023-01-15T07:22:32;6.22;;;1.60;;
67997;SDS011;54773;53.388;-1.504;2023-01-15T07:24:57;3.05;;;1.05;;
67997;SDS011;54773;53.388;-1.504;2023-01-15T07:27:23;2.85;;;1.00;;
67997;SDS011;54773;53.388;-1.504;2023-01-15T07:29:51;2.20;;;1.00;;
67997;SDS011;54773;53.388;-1.504;2023-01-15T07:32:16;4.57;;;1.23;;
67997;SDS011;54773;53.388;-1.504;2023-01-15T07:34:42;2.47;;;1.00;;
67997;SDS011;54773;53.388;-1.504;2023-01-15T07:37:08;4.68;;;1.10;;
67997;SDS011;54773;53.388;-1.504;2023-01-15T07:39:33;2.30;;;0.90;;
67997;SDS011;54773;53.388;-1.504;2023-01-15T07:42:00;2.60;;;1.20;;
67997;SDS011;54773;53.388;-1.504;2023-01-15T07:44:45;2.05;;;0.95;;
67997;SDS011;54773;53.388;-1.504;2023-01-15T07:50:20;2.25;;;1.00;;
67997;SDS011;54773;53.388;-1.504;2023-01-15T07:52:47;2.83;;;1.08;;
67997;SDS011;54773;53.388;-1.504;2023-01-15T07:55:14;6.32;;;1.35;;
67997;SDS011;54773;53.388;-1.504;2023-01-15T07:57:40;2.70;;;1.17;;
67997;SDS011;54773;53.388;-1.504;2023-01-15T08:00:07;2.47;;;1.00;;
67997;SDS011;54773;53.388;-1.504;2023-01-15T08:02:37;3.10;;;0.95;;
67997;SDS011;54773;53.388;-1.504;2023-01-15T08:05:03;3.05;;;1.48;;
67997;SDS011;54773;53.388;-1.504;2023-01-15T08:07:28;2.13;;;0.85;;
67997;SDS011;54773;53.388;-1.504;2023-01-15T08:09:54;1.80;;;1.00;;
67997;SDS011;54773;53.388;-1.504;2023-01-15T08:12:20;3.10;;;0.90;;
67997;SDS011;54773;53.388;-1.504;2023-01-15T08:15:30;2.17;;;0.60;;
67997;SDS011;54773;53.388;-1.504;2023-01-15T08:18:00;4.13;;;0.65;;
67997;SDS011;54773;53.388;-1.504;2023-01-15T08:20:28;1.67;;;0.70;;
67997;SDS011;54773;53.388;-1.504;2023-01-15T08:22:54;1.90;;;0.60;;
67997;SDS011;54773;53.388;-1.504;2023-01-15T08:25:23;0.90;;;0.55;;
67997;SDS011;54773;53.388;-1.504;2023-01-15T08:27:49;2.38;;;0.50;;
67997;SDS011;54773;53.388;-1.504;2023-01-15T08:30:16;1.88;;;0.50;;
67997;SDS011;54773;53.388;-1.504;2023-01-15T08:32:44;1.30;;;0.50;;
67997;SDS011;54773;53.388;-1.504;2023-01-15T08:35:10;1.70;;;0.52;;
67997;SDS011;54773;53.388;-1.504;2023-01-15T08:37:37;1.75;;;0.55;;
67997;SDS011;54773;53.388;-1.504;2023-01-15T08:40:03;1.05;;;0.40;;
67997;SDS011;54773;53.388;-1.504;2023-01-15T08:42:30;1.17;;;0.50;;
67997;SDS011;54773;53.388;-1.504;2023-01-15T08:44:55;1.25;;;0.40;;
67997;SDS011;54773;53.388;-1.504;2023-01-15T08:47:23;0.63;;;0.32;;
67997;SDS011;54773;53.388;-1.504;2023-01-15T08:49:48;1.45;;;0.50;;
67997;SDS011;54773;53.388;-1.504;2023-01-15T08:52:14;2.58;;;0.60;;
67997;SDS011;54773;53.388;-1.504;2023-01-15T08:54:39;2.83;;;0.40;;
67997;SDS011;54773;53.388;-1.504;2023-01-15T08:57:05;1.90;;;0.50;;
67997;SDS011;54773;53.388;-1.504;2023-01-15T08:59:33;0.52;;;0.40;;
67997;SDS011;54773;53.388;-1.504;2023-01-15T09:01:58;2.42;;;0.50;;
67997;SDS011;54773;53.388;-1.504;2023-01-15T09:04:24;0.60;;;0.30;;
67997;SDS011;54773;53.388;-1.504;2023-01-15T09:06:50;1.70;;;0.50;;
67997;SDS011;54773;53.388;-1.504;2023-01-15T09:09:16;0.63;;;0.40;;
67997;SDS011;54773;53.388;-1.504;2023-01-15T09:11:43;0.40;;;0.40;;
67997;SDS011;54773;53.388;-1.504;2023-01-15T09:14:09;1.05;;;0.40;;
67997;SDS011;54773;53.388;-1.504;2023-01-15T09:16:36;0.40;;;0.40;;
67997;SDS011;54773;53.388;-1.504;2023-01-15T09:19:02;0.95;;;0.40;;
67997;SDS011;54773;53.388;-1.504;2023-01-15T09:21:29;1.05;;;0.40;;
67997;SDS011;54773;53.388;-1.504;2023-01-15T09:23:55;1.08;;;0.60;;
67997;SDS011;54773;53.388;-1.504;2023-01-15T09:26:25;1.08;;;0.50;;
67997;SDS011;54773;53.388;-1.504;2023-01-15T09:28:55;1.67;;;0.50;;
67997;SDS011;54773;53.388;-1.504;2023-01-15T09:31:22;1.70;;;0.70;;
67997;SDS011;54773;53.388;-1.504;2023-01-15T09:33:48;0.88;;;0.50;;
67997;SDS011;54773;53.388;-1.504;2023-01-15T09:36:17;3.33;;;0.50;;
67997;SDS011;54773;53.388;-1.504;2023-01-15T09:38:47;2.75;;;0.50;;
67997;SDS011;54773;53.388;-1.504;2023-01-15T09:41:14;0.98;;;0.50;;
67997;SDS011;54773;53.388;-1.504;2023-01-15T09:49:42;2.25;;;0.98;;
67997;SDS011;54773;53.388;-1.504;2023-01-15T09:52:31;0.63;;;0.50;;
67997;SDS011;54773;53.388;-1.504;2023-01-15T09:55:15;1.40;;;0.50;;
67997;SDS011;54773;53.388;-1.504;2023-01-15T09:57:43;2.40;;;0.50;;
67997;SDS011;54773;53.388;-1.504;2023-01-15T10:00:18;3.58;;;0.70;;
67997;SDS011;54773;53.388;-1.504;2023-01-15T10:02:46;2.40;;;0.70;;
67997;SDS011;54773;53.388;-1.504;2023-01-15T10:05:15;2.45;;;0.70;;
67997;SDS011;54773;53.388;-1.504;2023-01-15T10:10:45;1.00;;;0.43;;
67997;SDS011;54773;53.388;-1.504;2023-01-15T10:13:18;1.42;;;0.40;;
67997;SDS011;54773;53.388;-1.504;2023-01-15T10:15:46;1.15;;;0.47;;
67997;SDS011;54773;53.388;-1.504;2023-01-15T10:18:18;1.50;;;0.60;;
67997;SDS011;54773;53.388;-1.504;2023-01-15T10:21:00;1.83;;;0.68;;
67997;SDS011;54773;53.388;-1.504;2023-01-15T10:26:02;4.68;;;0.90;;
67997;SDS011;54773;53.388;-1.504;2023-01-15T10:31:22;2.83;;;1.08;;
67997;SDS011;54773;53.388;-1.504;2023-01-15T10:36:27;4.63;;;1.00;;
67997;SDS011;54773;53.388;-1.504;2023-01-15T10:39:13;4.05;;;1.50;;
67997;SDS011;54773;53.388;-1.504;2023-01-15T10:41:47;4.75;;;1.52;;
67997;SDS011;54773;53.388;-1.504;2023-01-15T10:44:19;4.85;;;1.25;;
67997;SDS011;54773;53.388;-1.504;2023-01-15T10:46:52;4.05;;;1.58;;
67997;SDS011;54773;53.388;-1.504;2023-01-15T10:49:20;4.35;;;1.55;;
67997;SDS011;54773;53.388;-1.504;2023-01-15T10:57:12;2.80;;;1.20;;
67997;SDS011;54773;53.388;-1.504;2023-01-15T10:59:44;8.13;;;1.40;;
67997;SDS011;54773;53.388;-1.504;2023-01-15T11:04:51;2.58;;;0.98;;
67997;SDS011;54773;53.388;-1.504;2023-01-15T11:07:18;5.43;;;0.95;;
67997;SDS011;54773;53.388;-1.504;2023-01-15T11:09:46;3.13;;;0.75;;
67997;SDS011;54773;53.388;-1.504;2023-01-15T11:15:00;2.97;;;1.10;;
67997;SDS011;54773;53.388;-1.504;2023-01-15T11:17:48;4.32;;;1.20;;
67997;SDS011;54773;53.388;-1.504;2023-01-15T11:20:44;2.53;;;1.15;;
67997;SDS011;54773;53.388;-1.504;2023-01-15T11:23:15;4.53;;;1.38;;
67997;SDS011;54773;53.388;-1.504;2023-01-15T11:25:55;3.03;;;0.90;;
67997;SDS011;54773;53.388;-1.504;2023-01-15T11:28:32;2.78;;;0.85;;
67997;SDS011;54773;53.388;-1.504;2023-01-15T11:31:04;3.08;;;1.08;;
67997;SDS011;54773;53.388;-1.504;2023-01-15T11:33:32;2.85;;;1.00;;
67997;SDS011;54773;53.388;-1.504;2023-01-15T11:36:02;1.83;;;0.70;;
67997;SDS011;54773;53.388;-1.504;2023-01-15T11:38:45;1.75;;;0.80;;
67997;SDS011;54773;53.388;-1.504;2023-01-15T11:41:22;6.25;;;1.52;;
67997;SDS011;54773;53.388;-1.504;2023-01-15T11:43:52;2.95;;;1.00;;
67997;SDS011;54773;53.388;-1.504;2023-01-15T11:46:47;3.75;;;1.20;;
67997;SDS011;54773;53.388;-1.504;2023-01-15T11:49:38;3.85;;;1.25;;
67997;SDS011;54773;53.388;-1.504;2023-01-15T11:52:23;7.32;;;1.52;;
67997;SDS011;54773;53.388;-1.504;2023-01-15T11:54:52;5.95;;;1.83;;
67997;SDS011;54773;53.388;-1.504;2023-01-15T11:57:29;4.45;;;1.42;;
67997;SDS011;54773;53.388;-1.504;2023-01-15T11:59:56;5.45;;;1.70;;
67997;SDS011;54773;53.388;-1.504;2023-01-15T12:04:58;8.40;;;2.10;;
67997;SDS011;54773;53.388;-1.504;2023-01-15T12:07:26;6.35;;;2.13;;
67997;SDS011;54773;53.388;-1.504;2023-01-15T12:12:41;8.85;;;2.63;;
67997;SDS011;54773;53.388;-1.504;2023-01-15T12:21:02;6.57;;;2.35;;
67997;SDS011;54773;53.388;-1.504;2023-01-15T12:26:24;6.00;;;2.63;;
67997;SDS011;54773;53.388;-1.504;2023-01-15T12:29:01;7.30;;;3.13;;
67997;SDS011;54773;53.388;-1.504;2023-01-15T12:34:25;6.28;;;2.95;;
67997;SDS011;54773;53.388;-1.504;2023-01-15T12:37:25;10.68;;;3.33;;
67997;SDS011;54773;53.388;-1.504;2023-01-15T12:39:58;8.07;;;3.95;;
67997;SDS011;54773;53.388;-1.504;2023-01-15T12:42:28;8.48;;;3.95;;
67997;SDS011;54773;53.388;-1.504;2023-01-15T12:45:18;8.25;;;3.80;;
67997;SDS011;54773;53.388;-1.504;2023-01-15T12:53:11;9.82;;;4.30;;
67997;SDS011;54773;53.388;-1.504;2023-01-15T12:55:43;13.07;;;4.75;;
67997;SDS011;54773;53.388;-1.504;2023-01-15T12:58:46;5.05;;;3.15;;
67997;SDS011;54773;53.388;-1.504;2023-01-15T13:01:28;7.88;;;3.63;;
67997;SDS011;54773;53.388;-1.504;2023-01-15T13:04:11;10.57;;;3.95;;
67997;SDS011;54773;53.388;-1.504;2023-01-15T13:06:43;7.13;;;3.72;;
67997;SDS011;54773;53.388;-1.504;2023-01-15T13:09:35;10.02;;;4.32;;
67997;SDS011;54773;53.388;-1.504;2023-01-15T13:12:32;10.15;;;4.28;;
67997;SDS011;54773;53.388;-1.504;2023-01-15T13:14:58;9.70;;;3.90;;
67997;SDS011;54773;53.388;-1.504;2023-01-15T13:25:41;8.18;;;3.97;;
67997;SDS011;54773;53.388;-1.504;2023-01-15T13:28:39;11.15;;;4.40;;
67997;SDS011;54773;53.388;-1.504;2023-01-15T13:33:56;11.30;;;4.07;;
67997;SDS011;54773;53.388;-1.504;2023-01-15T13:36:27;8.43;;;3.70;;
67997;SDS011;54773;53.388;-1.504;2023-01-15T13:38:57;18.38;;;8.82;;
67997;SDS011;54773;53.388;-1.504;2023-01-15T13:41:26;16.73;;;8.70;;
67997;SDS011;54773;53.388;-1.504;2023-01-15T13:46:44;10.52;;;4.43;;
67997;SDS011;54773;53.388;-1.504;2023-01-15T13:49:17;11.20;;;3.88;;
67997;SDS011;54773;53.388;-1.504;2023-01-15T13:51:47;11.77;;;4.90;;
67997;SDS011;54773;53.388;-1.504;2023-01-15T13:54:17;8.02;;;4.22;;
67997;SDS011;54773;53.388;-1.504;2023-01-15T13:56:44;9.88;;;4.35;;
67997;SDS011;54773;53.388;-1.504;2023-01-15T14:04:52;11.85;;;4.22;;
67997;SDS011;54773;53.388;-1.504;2023-01-15T14:07:36;9.32;;;4.75;;
67997;SDS011;54773;53.388;-1.504;2023-01-15T14:15:16;8.18;;;3.60;;
67997;SDS011;54773;53.388;-1.504;2023-01-15T14:20:59;10.45;;;3.47;;
67997;SDS011;54773;53.388;-1.504;2023-01-15T14:23:50;10.43;;;3.03;;
67997;SDS011;54773;53.388;-1.504;2023-01-15T14:28:55;9.13;;;3.55;;
67997;SDS011;54773;53.388;-1.504;2023-01-15T14:31:58;9.30;;;3.35;;
67997;SDS011;54773;53.388;-1.504;2023-01-15T14:34:26;9.60;;;3.70;;
67997;SDS011;54773;53.388;-1.504;2023-01-15T14:42:08;10.63;;;4.43;;
67997;SDS011;54773;53.388;-1.504;2023-01-15T14:45:05;10.48;;;3.92;;
67997;SDS011;54773;53.388;-1.504;2023-01-15T14:47:49;12.85;;;4.63;;
67997;SDS011;54773;53.388;-1.504;2023-01-15T14:52:51;13.73;;;4.80;;
67997;SDS011;54773;53.388;-1.504;2023-01-15T14:55:18;12.30;;;4.75;;
67997;SDS011;54773;53.388;-1.504;2023-01-15T14:57:54;15.45;;;5.32;;
67997;SDS011;54773;53.388;-1.504;2023-01-15T15:00:23;11.77;;;4.18;;
67997;SDS011;54773;53.388;-1.504;2023-01-15T15:02:54;17.67;;;6.03;;
67997;SDS011;54773;53.388;-1.504;2023-01-15T15:05:21;14.40;;;5.03;;
67997;SDS011;54773;53.388;-1.504;2023-01-15T15:07:49;13.48;;;4.85;;
67997;SDS011;54773;53.388;-1.504;2023-01-15T15:10:32;14.27;;;5.40;;
67997;SDS011;54773;53.388;-1.504;2023-01-15T15:21:19;13.18;;;4.30;;
67997;SDS011;54773;53.388;-1.504;2023-01-15T15:32:09;13.98;;;6.13;;
67997;SDS011;54773;53.388;-1.504;2023-01-15T15:35:18;14.23;;;5.95;;
67997;SDS011;54773;53.388;-1.504;2023-01-15T15:40:18;10.40;;;4.97;;
67997;SDS011;54773;53.388;-1.504;2023-01-15T15:43:01;13.93;;;5.57;;
67997;SDS011;54773;53.388;-1.504;2023-01-15T15:46:00;12.90;;;5.25;;
67997;SDS011;54773;53.388;-1.504;2023-01-15T15:49:04;11.52;;;4.90;;
67997;SDS011;54773;53.388;-1.504;2023-01-15T15:59:31;9.57;;;4.00;;
67997;SDS011;54773;53.388;-1.504;2023-01-15T16:01:59;7.80;;;4.00;;
67997;SDS011;54773;53.388;-1.504;2023-01-15T16:04:43;11.60;;;4.28;;
67997;SDS011;54773;53.388;-1.504;2023-01-15T16:07:39;10.25;;;4.15;;
67997;SDS011;54773;53.388;-1.504;2023-01-15T16:13:03;13.95;;;5.28;;
67997;SDS011;54773;53.388;-1.504;2023-01-15T16:15:40;9.98;;;4.57;;
67997;SDS011;54773;53.388;-1.504;2023-01-15T16:18:14;11.38;;;5.20;;
67997;SDS011;54773;53.388;-1.504;2023-01-15T16:20:55;10.95;;;5.10;;
67997;SDS011;54773;53.388;-1.504;2023-01-15T16:23:28;11.45;;;5.00;;
67997;SDS011;54773;53.388;-1.504;2023-01-15T16:26:07;11.05;;;5.70;;
67997;SDS011;54773;53.388;-1.504;2023-01-15T16:28:50;12.65;;;4.90;;
67997;SDS011;54773;53.388;-1.504;2023-01-15T16:31:20;9.25;;;5.28;;
67997;SDS011;54773;53.388;-1.504;2023-01-15T16:34:03;12.65;;;6.35;;
67997;SDS011;54773;53.388;-1.504;2023-01-15T16:36:39;12.43;;;5.95;;
67997;SDS011;54773;53.388;-1.504;2023-01-15T16:39:29;13.73;;;6.50;;
67997;SDS011;54773;53.388;-1.504;2023-01-15T16:42:02;12.75;;;6.97;;
67997;SDS011;54773;53.388;-1.504;2023-01-15T16:58:56;15.13;;;7.25;;
67997;SDS011;54773;53.388;-1.504;2023-01-15T17:01:39;14.30;;;6.22;;
67997;SDS011;54773;53.388;-1.504;2023-01-15T17:15:27;20.60;;;8.18;;
67997;SDS011;54773;53.388;-1.504;2023-01-15T17:17:49;14.18;;;5.25;;
67997;SDS011;54773;53.388;-1.504;2023-01-15T17:20:38;12.70;;;4.35;;
67997;SDS011;54773;53.388;-1.504;2023-01-15T17:23:15;12.60;;;3.75;;
67997;SDS011;54773;53.388;-1.504;2023-01-15T17:25:43;11.40;;;3.97;;
67997;SDS011;54773;53.388;-1.504;2023-01-15T17:28:17;11.40;;;3.83;;
67997;SDS011;54773;53.388;-1.504;2023-01-15T17:42:57;10.77;;;5.30;;
67997;SDS011;54773;53.388;-1.504;2023-01-15T17:45:43;10.75;;;4.32;;
67997;SDS011;54773;53.388;-1.504;2023-01-15T17:48:09;12.73;;;5.43;;
67997;SDS011;54773;53.388;-1.504;2023-01-15T17:50:35;12.10;;;4.68;;
67997;SDS011;54773;53.388;-1.504;2023-01-15T17:53:03;12.02;;;4.45;;
67997;SDS011;54773;53.388;-1.504;2023-01-15T17:55:29;12.70;;;5.00;;